Time;durP1;ratioP1;P1;durP2;ratioP2;P2;SDS_P1;SDS_P2;PMS_P1;PMS_P2;Temp;Humidity;BMP_temperature;BMP_pressure;BME280_temperature;BME280_humidity;BME280_pressure;Samples;Min_cycle;Max_cycle;Signal;HPM_P1;HPM_P2
2021/12/30 00:00:58;;;;;;;33.63;7.22;;;;;;;11.10;94.22;101062.13;5013540;28;20091;-64
2021/12/30 00:03:23;;;;;;;32.17;6.90;;;;;;;11.07;94.47;101062.09;5013664;28;20029;-64
2021/12/30 00:05:52;;;;;;;34.78;6.70;;;;;;;11.09;94.61;101072.66;5013825;28;20430;-71
2021/12/30 00:08:18;;;;;;;28.58;6.28;;;;;;;11.08;94.17;101061.19;5013550;28;20029;-63
2021/12/30 00:10:44;;;;;;;34.30;6.20;;;;;;;11.06;94.32;101060.31;5013464;28;20144;-64
2021/12/30 00:13:10;;;;;;;30.20;6.97;;;;;;;11.06;94.95;101065.59;5013566;28;20034;-64
2021/12/30 00:15:36;;;;;;;37.33;6.90;;;;;;;11.09;94.28;101064.72;5013215;28;20037;-64
2021/12/30 00:18:04;;;;;;;33.45;6.75;;;;;;;11.12;94.51;101064.78;5013635;28;20030;-63
2021/12/30 00:20:29;;;;;;;35.78;6.85;;;;;;;11.12;94.48;101075.34;5013215;28;20056;-63
2021/12/30 00:22:55;;;;;;;42.00;7.53;;;;;;;11.16;94.57;101074.53;5013360;28;20021;-64
2021/12/30 00:25:20;;;;;;;32.78;7.03;;;;;;;11.15;94.34;101068.34;5013120;28;20394;-64
2021/12/30 00:27:46;;;;;;;37.08;7.85;;;;;;;11.16;94.86;101075.41;5013339;28;20076;-64
2021/12/30 00:30:13;;;;;;;46.13;8.05;;;;;;;11.17;94.47;101071.88;5013221;28;20026;-63
2021/12/30 00:32:39;;;;;;;35.83;7.65;;;;;;;11.18;94.74;101070.16;5013183;28;20048;-63
2021/12/30 00:35:11;;;;;;;43.92;8.43;;;;;;;11.20;94.73;101071.94;5013249;28;20029;-64
2021/12/30 00:37:36;;;;;;;41.33;8.57;;;;;;;11.22;94.54;101067.56;5013351;28;20037;-64
2021/12/30 00:40:04;;;;;;;34.70;8.35;;;;;;;11.23;94.64;101077.28;5013299;28;20415;-64
2021/12/30 00:42:30;;;;;;;37.10;7.85;;;;;;;11.24;94.86;101079.03;5013474;28;20045;-64
2021/12/30 00:44:55;;;;;;;37.65;7.70;;;;;;;11.27;94.74;101083.50;5012948;28;20475;-64
2021/12/30 00:47:20;;;;;;;36.03;7.70;;;;;;;11.27;94.77;101088.78;5015187;28;20018;-64
2021/12/30 00:49:46;;;;;;;45.10;7.68;;;;;;;11.29;94.78;101089.66;5016888;28;20137;-64
2021/12/30 00:52:12;;;;;;;36.92;7.93;;;;;;;11.28;95.02;101094.06;5016980;28;20033;-64
2021/12/30 00:54:37;;;;;;;33.85;7.32;;;;;;;11.31;94.85;101098.53;5017034;28;20033;-64
2021/12/30 00:57:06;;;;;;;34.67;7.32;;;;;;;11.32;95.03;101092.38;5017082;28;20049;-64
2021/12/30 00:59:31;;;;;;;40.47;6.93;;;;;;;11.33;94.68;101098.53;5016925;28;20026;-64
2021/12/30 01:01:57;;;;;;;37.90;7.35;;;;;;;11.34;94.68;101092.38;5016638;28;20033;-64
2021/12/30 01:04:22;;;;;;;31.23;7.07;;;;;;;11.35;95.33;101096.78;4999140;28;20029;-63
2021/12/30 01:06:48;;;;;;;40.38;7.32;;;;;;;11.32;95.01;101083.53;5016693;28;20383;-64
2021/12/30 01:09:14;;;;;;;33.25;6.72;;;;;;;11.34;95.27;101095.91;5016735;28;20033;-63
2021/12/30 01:11:39;;;;;;;41.75;7.63;;;;;;;11.35;94.73;101088.84;5016709;28;20105;-63
2021/12/30 01:14:15;;;;;;;40.00;7.18;;;;;;;11.33;95.25;101091.47;5016624;28;20390;-64
2021/12/30 01:16:43;;;;;;;35.60;6.43;;;;;;;11.35;95.19;101096.78;5016475;28;20025;-63
2021/12/30 01:21:54;;;;;;;40.13;6.88;;;;;;;11.40;95.50;101108.34;5016902;28;20510;-63
2021/12/30 01:24:20;;;;;;;32.95;5.82;;;;;;;11.42;95.64;101117.16;5016664;28;20014;-64
2021/12/30 01:26:46;;;;;;;30.27;6.07;;;;;;;11.42;95.71;101102.16;5016451;28;20025;-63
2021/12/30 01:29:12;;;;;;;33.38;5.88;;;;;;;11.44;96.02;101102.22;5016394;28;20022;-64
2021/12/30 01:31:37;;;;;;;35.67;6.10;;;;;;;11.46;96.09;101101.34;4998644;28;20028;-64
2021/12/30 01:34:03;;;;;;;36.85;6.50;;;;;;;11.49;96.01;101098.72;5016312;28;20056;-63
2021/12/30 01:36:28;;;;;;;34.70;6.30;;;;;;;11.50;95.91;101111.09;5016371;28;20503;-66
2021/12/30 01:38:55;;;;;;;39.33;6.55;;;;;;;11.54;96.18;101109.38;5016348;28;20026;-64
2021/12/30 01:41:22;;;;;;;37.80;6.60;;;;;;;11.56;96.19;101110.25;4998518;28;20041;-64
2021/12/30 01:43:48;;;;;;;36.30;6.75;;;;;;;11.55;96.28;101097.91;4998367;28;20068;-64
2021/12/30 01:46:15;;;;;;;43.53;7.60;;;;;;;11.60;96.61;101095.31;5015923;28;20033;-63
2021/12/30 01:48:42;;;;;;;26.92;6.72;;;;;;;11.66;97.01;101100.69;5016027;28;20374;-66
2021/12/30 01:51:09;;;;;;;35.75;7.10;;;;;;;11.68;96.79;101098.91;5015659;28;20046;-64
2021/12/30 01:53:34;;;;;;;36.00;7.65;;;;;;;11.70;96.84;101097.19;5015882;28;20038;-66
2021/12/30 01:56:01;;;;;;;36.67;6.63;;;;;;;11.72;96.70;101106.91;5015944;28;20030;-66
2021/12/30 01:58:26;;;;;;;30.70;7.10;;;;;;;11.76;97.12;101098.13;5015115;28;20029;-64
2021/12/30 02:00:52;;;;;;;47.95;9.15;;;;;;;11.81;96.65;101099.94;5015734;28;20030;-64
2021/12/30 02:03:19;;;;;;;32.63;7.68;;;;;;;11.83;96.91;101100.88;5015747;28;20068;-63
2021/12/30 02:05:45;;;;;;;34.78;7.97;;;;;;;11.85;96.76;101088.53;5015565;28;20041;-63
2021/12/30 02:08:14;;;;;;;29.20;7.22;;;;;;;11.86;96.89;101088.56;5015761;28;20026;-64
2021/12/30 02:10:40;;;;;;;29.73;7.13;;;;;;;11.88;96.99;101086.81;5015658;28;20030;-64
2021/12/30 02:13:08;;;;;;;31.77;8.30;;;;;;;11.92;97.38;101085.06;5015485;28;20119;-65
2021/12/30 02:15:33;;;;;;;43.45;8.75;;;;;;;11.92;97.05;101095.66;5015561;28;20056;-64
2021/12/30 02:18:01;;;;;;;35.55;8.15;;;;;;;11.96;97.11;101100.13;5015765;28;20375;-64
2021/12/30 02:20:44;;;;;;;28.77;7.63;;;;;;;12.00;97.27;101109.88;5015371;28;20029;-64
2021/12/30 02:23:11;;;;;;;32.83;8.07;;;;;;;12.00;97.07;101110.75;5015426;28;20029;-63
2021/12/30 02:25:37;;;;;;;28.40;7.70;;;;;;;12.00;97.29;101104.56;5015277;28;20030;-63
2021/12/30 02:28:14;;;;;;;33.08;8.65;;;;;;;11.99;97.61;101116.00;5015330;28;20022;-63
2021/12/30 02:30:41;;;;;;;28.67;7.68;;;;;;;12.01;97.17;101103.69;5015380;28;20037;-63
2021/12/30 02:33:06;;;;;;;34.30;7.88;;;;;;;12.00;97.18;101115.16;5015281;28;20029;-63
2021/12/30 02:35:33;;;;;;;32.50;7.47;;;;;;;12.01;97.36;101109.00;5015199;28;20075;-63
2021/12/30 02:37:59;;;;;;;26.70;6.82;;;;;;;12.00;97.35;101112.53;5015049;28;20022;-64
2021/12/30 02:40:32;;;;;;;33.15;7.57;;;;;;;12.00;97.70;101115.16;5015073;28;20121;-64
2021/12/30 02:42:58;;;;;;;33.70;7.40;;;;;;;11.99;97.43;101108.97;5014967;28;20030;-64
2021/12/30 02:45:24;;;;;;;31.83;7.45;;;;;;;12.00;97.74;101108.09;5014804;28;20065;-64
2021/12/30 02:47:50;;;;;;;31.38;6.63;;;;;;;12.00;98.10;101102.81;5014933;28;20447;-63
2021/12/30 02:50:16;;;;;;;34.95;7.10;;;;;;;12.02;97.77;101113.41;5014739;28;20057;-63
2021/12/30 02:52:42;;;;;;;27.25;7.22;;;;;;;12.02;98.04;101110.75;5014721;28;20388;-64
2021/12/30 02:55:08;;;;;;;27.30;6.65;;;;;;;12.01;98.44;101103.69;5014715;28;20057;-64
2021/12/30 02:57:34;;;;;;;30.80;6.75;;;;;;;12.02;98.25;101116.06;5014657;28;20218;-64
2021/12/30 03:00:00;;;;;;;33.20;7.10;;;;;;;12.02;98.52;101119.59;5014617;28;20026;-63
2021/12/30 03:02:25;;;;;;;22.70;6.72;;;;;;;12.02;98.72;101109.00;5014683;28;20144;-64
2021/12/30 03:04:51;;;;;;;27.25;6.47;;;;;;;12.02;98.44;101124.88;5014525;28;20475;-64
2021/12/30 03:07:18;;;;;;;25.95;6.90;;;;;;;12.03;98.50;101124.03;5014467;28;20018;-64
2021/12/30 03:09:46;;;;;;;28.40;6.65;;;;;;;12.02;99.21;101130.19;5014016;28;20041;-64
2021/12/30 03:12:12;;;;;;;22.02;6.55;;;;;;;12.03;99.13;101125.75;5014153;28;20057;-64
2021/12/30 03:14:41;;;;;;;27.63;7.35;;;;;;;12.01;99.54;101119.59;5014533;28;20420;-64
2021/12/30 03:17:07;;;;;;;25.42;7.25;;;;;;;12.02;99.64;101121.34;5014352;28;20033;-65
2021/12/30 03:19:33;;;;;;;18.75;6.63;;;;;;;12.03;99.73;101124.03;5014317;28;20407;-65
2021/12/30 03:21:58;;;;;;;19.77;6.50;;;;;;;12.03;99.75;101131.06;5014479;28;20045;-64
2021/12/30 03:24:24;;;;;;;14.10;5.90;;;;;;;12.05;99.77;101123.16;5014251;28;20475;-64
2021/12/30 03:26:49;;;;;;;19.02;6.60;;;;;;;12.07;100.00;101132.88;5014102;28;20043;-64
2021/12/30 03:29:14;;;;;;;18.38;6.35;;;;;;;12.06;100.00;101119.63;5014232;28;20028;-64
2021/12/30 03:31:40;;;;;;;18.15;6.10;;;;;;;12.07;100.00;101122.28;4996409;28;20375;-66
2021/12/30 03:34:05;;;;;;;15.30;5.95;;;;;;;12.07;100.00;101124.03;5014119;28;20022;-65
2021/12/30 03:36:33;;;;;;;14.45;6.00;;;;;;;12.05;100.00;101118.75;5014088;28;20472;-65
2021/12/30 03:38:59;;;;;;;16.95;6.07;;;;;;;12.08;100.00;101126.72;5014035;28;20088;-65
2021/12/30 03:41:27;;;;;;;15.23;6.13;;;;;;;12.08;100.00;101121.44;5014053;28;20033;-65
2021/12/30 03:43:53;;;;;;;11.00;6.13;;;;;;;12.11;100.00;101124.06;5013891;28;20057;-64
2021/12/30 03:46:19;;;;;;;13.15;5.85;;;;;;;12.11;100.00;101118.78;5013999;28;20097;-64
2021/12/30 03:48:45;;;;;;;14.50;5.63;;;;;;;12.14;100.00;101128.53;5013796;28;20558;-65
2021/12/30 03:51:20;;;;;;;11.38;5.78;;;;;;;12.15;100.00;101128.53;5013615;28;20128;-65
2021/12/30 03:53:49;;;;;;;9.95;5.32;;;;;;;12.20;100.00;101134.75;5013959;28;20041;-64
2021/12/30 03:56:16;;;;;;;9.63;5.35;;;;;;;12.19;100.00;101125.03;5013481;28;20463;-64
2021/12/30 03:58:44;;;;;;;9.27;5.22;;;;;;;12.22;100.00;101133.03;5013971;28;20419;-64
2021/12/30 04:01:11;;;;;;;11.90;5.15;;;;;;;12.24;100.00;101123.31;5013607;28;20423;-64
2021/12/30 04:03:37;;;;;;;10.73;5.43;;;;;;;12.27;100.00;101122.47;4996010;28;20036;-64
2021/12/30 04:06:03;;;;;;;8.88;5.05;;;;;;;12.31;100.00;101131.31;5013509;28;20034;-64
2021/12/30 04:08:28;;;;;;;10.68;5.85;;;;;;;12.31;100.00;101124.25;5013575;28;20029;-65
2021/12/30 04:10:57;;;;;;;11.38;5.60;;;;;;;12.34;100.00;101126.94;5013428;28;20029;-64
2021/12/30 04:13:23;;;;;;;12.32;6.22;;;;;;;12.41;100.00;101119.91;5013514;28;20033;-65
2021/12/30 04:15:48;;;;;;;9.45;6.60;;;;;;;12.42;100.00;101126.97;5013438;28;20026;-64
2021/12/30 04:18:14;;;;;;;11.13;6.72;;;;;;;12.46;100.00;101134.06;4995882;28;20065;-65
2021/12/30 04:20:39;;;;;;;13.80;8.18;;;;;;;12.47;100.00;101139.41;5013406;28;20537;-65
2021/12/30 04:23:05;;;;;;;13.63;8.05;;;;;;;12.48;100.00;101130.56;5013129;28;20037;-65
2021/12/30 04:25:30;;;;;;;13.88;8.88;;;;;;;12.53;100.00;101143.84;5013192;28;20467;-65
2021/12/30 04:27:56;;;;;;;16.30;9.88;;;;;;;12.55;100.00;101139.47;5013293;28;20030;-65
2021/12/30 04:30:21;;;;;;;17.63;11.25;;;;;;;12.57;100.00;101140.34;5013199;28;20045;-65
2021/12/30 04:32:47;;;;;;;14.68;10.05;;;;;;;12.62;100.00;101143.03;5013131;28;20121;-64
2021/12/30 04:35:13;;;;;;;17.50;11.00;;;;;;;12.65;100.00;101149.25;5013087;28;20053;-65
2021/12/30 04:37:39;;;;;;;18.40;12.57;;;;;;;12.66;100.00;101151.03;5013164;28;20105;-64
2021/12/30 04:40:06;;;;;;;18.13;12.48;;;;;;;12.68;100.00;101143.97;5013265;28;20080;-64
2021/12/30 04:42:32;;;;;;;19.33;12.80;;;;;;;12.72;100.00;101150.19;5013191;28;20061;-65
2021/12/30 04:44:57;;;;;;;20.27;13.65;;;;;;;12.75;100.00;101134.28;5012821;28;20072;-65
2021/12/30 04:47:23;;;;;;;19.90;14.48;;;;;;;12.79;100.00;101146.69;5013260;28;20022;-65
2021/12/30 04:49:49;;;;;;;21.02;15.02;;;;;;;12.84;100.00;101152.91;5013053;28;20471;-65
2021/12/30 04:52:15;;;;;;;21.00;14.77;;;;;;;12.85;100.00;101156.44;5013106;28;20025;-64
2021/12/30 04:54:41;;;;;;;20.45;14.80;;;;;;;12.85;100.00;101153.78;5013115;28;20083;-65
2021/12/30 04:57:06;;;;;;;21.48;15.15;;;;;;;12.87;100.00;101144.97;5012910;28;20057;-65
2021/12/30 04:59:32;;;;;;;20.70;15.50;;;;;;;12.92;100.00;101151.19;5013017;28;20041;-65
2021/12/30 05:01:58;;;;;;;20.80;15.40;;;;;;;12.93;100.00;101157.38;5012975;28;20033;-65
2021/12/30 05:04:24;;;;;;;20.85;16.00;;;;;;;12.95;99.97;101147.69;5013035;28;20048;-65
2021/12/30 05:06:49;;;;;;;19.52;15.05;;;;;;;12.96;99.98;101152.09;5012987;28;20030;-65
2021/12/30 05:09:15;;;;;;;20.00;15.55;;;;;;;12.95;99.83;101158.28;5013121;28;20375;-65
2021/12/30 05:11:42;;;;;;;20.20;16.35;;;;;;;12.97;100.00;101159.19;5012910;28;20022;-64
2021/12/30 05:14:11;;;;;;;20.98;15.98;;;;;;;12.97;100.00;101162.72;5012925;28;20025;-64
2021/12/30 05:16:37;;;;;;;18.98;16.02;;;;;;;12.99;99.68;101160.97;5012804;28;20026;-64
2021/12/30 05:19:03;;;;;;;20.33;17.23;;;;;;;13.01;99.49;101171.56;5012895;28;20032;-64
2021/12/30 05:21:29;;;;;;;19.17;15.65;;;;;;;12.98;99.58;101163.63;5012844;28;20026;-64
2021/12/30 05:23:54;;;;;;;21.45;16.25;;;;;;;13.02;99.37;101176.03;4995202;28;20113;-65
2021/12/30 05:26:22;;;;;;;17.95;14.75;;;;;;;13.04;99.44;101175.16;5012758;28;20037;-65
2021/12/30 05:28:48;;;;;;;22.00;15.45;;;;;;;12.99;99.49;101165.38;5012785;28;20061;-64
2021/12/30 05:31:13;;;;;;;18.35;14.80;;;;;;;13.09;99.30;101176.94;5012660;28;20470;-65
2021/12/30 05:33:38;;;;;;;17.85;14.45;;;;;;;13.09;99.41;101182.25;5013494;28;20057;-64
2021/12/30 05:36:06;;;;;;;16.25;13.25;;;;;;;13.10;99.24;101192.84;4998644;28;20395;-64
2021/12/30 05:38:31;;;;;;;15.15;12.45;;;;;;;13.12;99.24;101190.22;5016312;28;20480;-64
2021/12/30 05:40:57;;;;;;;12.93;11.57;;;;;;;13.12;99.06;101192.88;5016187;28;20022;-64
2021/12/30 05:43:22;;;;;;;12.68;10.88;;;;;;;13.14;98.83;101201.72;5015908;28;20022;-64
2021/12/30 05:45:47;;;;;;;12.00;10.77;;;;;;;13.17;98.94;101201.75;5016075;28;20029;-64
2021/12/30 05:48:16;;;;;;;12.27;11.00;;;;;;;13.18;98.74;101200.88;5016077;28;20033;-64
2021/12/30 05:50:41;;;;;;;12.10;10.55;;;;;;;13.21;98.36;101204.44;5015789;28;20043;-64
2021/12/30 05:53:07;;;;;;;12.38;11.18;;;;;;;13.23;98.23;101216.00;5015847;28;20407;-64
2021/12/30 05:55:33;;;;;;;12.25;11.05;;;;;;;13.22;98.07;101221.22;5015943;28;20130;-64
2021/12/30 05:57:59;;;;;;;11.52;10.32;;;;;;;13.28;97.54;101224.84;5015654;28;20101;-64
2021/12/30 06:00:27;;;;;;;10.07;8.63;;;;;;;13.33;96.63;101213.38;5015958;28;20034;-71
2021/12/30 06:02:53;;;;;;;9.40;8.50;;;;;;;13.34;96.19;101216.03;5015858;28;20049;-64
2021/12/30 06:05:22;;;;;;;10.77;9.43;;;;;;;13.35;96.30;101214.25;5015675;28;20419;-64
2021/12/30 06:07:48;;;;;;;10.50;9.40;;;;;;;13.36;95.94;101208.97;5015657;28;20029;-64
2021/12/30 06:10:14;;;;;;;10.98;9.77;;;;;;;13.41;95.26;101212.53;4998050;28;20026;-64
2021/12/30 06:12:43;;;;;;;10.77;9.68;;;;;;;13.43;95.29;101205.47;5015311;28;20060;-65
2021/12/30 06:15:09;;;;;;;10.73;9.63;;;;;;;13.41;95.47;101203.69;5015655;28;20041;-64
2021/12/30 06:17:36;;;;;;;12.25;10.18;;;;;;;13.41;94.80;101201.94;5015387;28;20053;-64
2021/12/30 06:20:02;;;;;;;11.35;10.10;;;;;;;13.39;95.23;101211.63;5015576;28;20049;-64
2021/12/30 06:22:28;;;;;;;11.65;10.07;;;;;;;13.40;95.28;101220.47;5015352;28;20399;-64
2021/12/30 06:24:53;;;;;;;11.60;10.40;;;;;;;13.37;95.11;101218.72;5015459;28;20022;-65
2021/12/30 06:27:18;;;;;;;13.98;11.30;;;;;;;13.39;95.11;101213.41;5015020;28;20044;-64
2021/12/30 06:29:44;;;;;;;12.45;11.25;;;;;;;13.40;94.88;101212.50;5015286;28;20025;-64
2021/12/30 06:32:09;;;;;;;13.35;11.13;;;;;;;13.39;95.08;101213.41;5015128;28;20029;-64
2021/12/30 06:34:35;;;;;;;13.60;11.40;;;;;;;13.41;94.64;101216.97;5015258;28;20038;-64
2021/12/30 06:37:00;;;;;;;14.38;11.45;;;;;;;13.40;94.81;101220.47;5015060;28;20021;-64
2021/12/30 06:39:26;;;;;;;11.98;10.77;;;;;;;13.32;94.73;101199.22;5015122;28;20101;-63
2021/12/30 06:41:51;;;;;;;12.82;11.30;;;;;;;13.39;94.67;101216.06;5014966;28;20025;-64
2021/12/30 06:44:17;;;;;;;12.60;10.82;;;;;;;13.40;94.77;101229.31;5014371;28;20038;-64
2021/12/30 06:46:53;;;;;;;10.70;9.60;;;;;;;13.41;94.40;101227.59;5014662;28;20025;-64
2021/12/30 06:49:19;;;;;;;11.90;9.05;;;;;;;13.41;94.50;101219.63;5014967;28;20030;-64
2021/12/30 06:51:44;;;;;;;10.85;9.75;;;;;;;13.42;94.47;101226.69;5014342;28;20052;-64
2021/12/30 06:54:10;;;;;;;11.55;9.45;;;;;;;13.43;94.31;101217.84;5014822;28;20060;-64
2021/12/30 06:56:35;;;;;;;10.32;8.27;;;;;;;13.45;94.17;101232.03;5014643;28;20080;-65
2021/12/30 06:59:03;;;;;;;10.68;8.88;;;;;;;13.45;94.05;101226.72;5014522;28;20022;-65
2021/12/30 07:01:29;;;;;;;9.48;8.48;;;;;;;13.45;94.10;101238.22;5014864;28;20098;-65
2021/12/30 07:04:01;;;;;;;8.98;8.07;;;;;;;13.46;94.01;101252.38;5014796;28;20490;-65
2021/12/30 07:06:26;;;;;;;11.27;8.70;;;;;;;13.47;93.75;101249.72;5014655;28;20430;-65
2021/12/30 07:08:52;;;;;;;9.25;8.35;;;;;;;13.47;93.85;101247.06;5014695;28;20101;-65
2021/12/30 07:11:17;;;;;;;10.23;8.25;;;;;;;13.47;93.62;101256.81;5014479;28;20014;-64
2021/12/30 07:13:42;;;;;;;9.50;7.82;;;;;;;13.46;93.86;101255.91;5014226;28;20030;-65
2021/12/30 07:16:08;;;;;;;9.18;8.02;;;;;;;13.46;93.91;101260.34;5014339;28;20110;-65
2021/12/30 07:18:33;;;;;;;9.20;7.60;;;;;;;13.47;93.77;101263.00;5014360;28;20026;-65
2021/12/30 07:20:59;;;;;;;9.35;7.95;;;;;;;13.44;94.01;101268.28;5014392;28;20029;-65
2021/12/30 07:23:24;;;;;;;10.57;8.32;;;;;;;13.47;93.61;101265.66;5014210;28;20026;-65
2021/12/30 07:25:50;;;;;;;9.88;8.13;;;;;;;13.50;93.68;101280.72;5014139;28;20026;-65
2021/12/30 07:28:15;;;;;;;10.02;8.35;;;;;;;13.49;93.59;101277.19;5014002;28;20033;-65
2021/12/30 07:30:41;;;;;;;11.55;9.40;;;;;;;13.47;93.91;101280.69;5014106;28;20053;-65
2021/12/30 07:33:08;;;;;;;12.57;8.88;;;;;;;13.46;93.81;101279.81;5014103;28;20018;-65
2021/12/30 07:35:35;;;;;;;12.93;9.98;;;;;;;13.47;93.76;101286.00;5014088;28;20072;-65
2021/12/30 07:38:01;;;;;;;14.70;10.20;;;;;;;13.44;93.92;101289.53;5013962;28;20032;-65
2021/12/30 07:40:27;;;;;;;12.98;10.90;;;;;;;13.42;94.08;101278.03;4996290;28;20022;-65
2021/12/30 07:42:53;;;;;;;13.57;10.88;;;;;;;13.49;93.74;101292.22;5013819;28;20072;-65
2021/12/30 07:45:18;;;;;;;13.48;10.85;;;;;;;13.48;93.76;101282.47;5013637;28;20083;-65
2021/12/30 07:47:45;;;;;;;13.60;11.43;;;;;;;13.52;93.75;101295.75;5014112;28;20222;-65
2021/12/30 07:50:11;;;;;;;13.02;11.30;;;;;;;13.50;93.59;101300.19;5013913;28;20025;-65
2021/12/30 07:52:37;;;;;;;12.25;10.55;;;;;;;13.50;93.87;101294.88;5013581;28;20038;-65
2021/12/30 07:55:07;;;;;;;12.95;9.75;;;;;;;13.53;93.64;101299.31;4996033;28;20419;-65
2021/12/30 07:57:33;;;;;;;10.60;8.35;;;;;;;13.52;93.74;101295.75;5013004;28;20080;-64
2021/12/30 07:59:58;;;;;;;11.27;8.40;;;;;;;13.52;93.66;101295.75;5013137;28;20038;-65
2021/12/30 08:02:24;;;;;;;11.38;8.32;;;;;;;13.56;93.41;101304.66;5013004;28;20033;-64
2021/12/30 08:04:49;;;;;;;9.90;8.00;;;;;;;13.53;93.30;101288.69;5013312;28;20034;-66
2021/12/30 08:07:21;;;;;;;12.55;8.13;;;;;;;13.55;93.19;101297.56;5012964;28;20109;-65
2021/12/30 08:09:47;;;;;;;9.32;7.43;;;;;;;13.53;93.25;101281.63;5013239;28;20495;-66
2021/12/30 08:12:12;;;;;;;8.57;6.97;;;;;;;13.51;93.48;101296.66;5013176;28;20057;-65
2021/12/30 08:14:38;;;;;;;9.48;6.70;;;;;;;13.51;93.07;101301.97;5013035;28;20029;-65
2021/12/30 08:17:03;;;;;;;7.88;6.30;;;;;;;13.50;93.05;101307.28;5012708;28;20026;-66
2021/12/30 08:19:29;;;;;;;10.73;6.10;;;;;;;13.49;92.95;101321.44;5013027;28;20471;-65
2021/12/30 08:21:56;;;;;;;8.63;5.47;;;;;;;13.49;92.94;101322.31;5012882;28;20061;-65
2021/12/30 08:24:21;;;;;;;7.50;5.38;;;;;;;13.50;92.90;101328.50;5012766;28;20033;-66
2021/12/30 08:26:47;;;;;;;7.10;5.10;;;;;;;13.50;92.82;101326.75;5012909;28;20430;-66
2021/12/30 08:29:12;;;;;;;9.45;4.93;;;;;;;13.52;92.98;101330.28;5012622;28;20034;-65
2021/12/30 08:31:38;;;;;;;7.70;4.82;;;;;;;13.52;92.82;101332.06;5012567;28;20094;-64
2021/12/30 08:34:05;;;;;;;8.23;4.85;;;;;;;13.52;92.97;101326.75;5012783;28;20026;-65
2021/12/30 08:36:31;;;;;;;7.80;4.68;;;;;;;13.52;93.00;101316.13;5012874;28;20041;-65
2021/12/30 08:38:58;;;;;;;6.90;4.40;;;;;;;13.57;92.72;101324.13;5029574;28;20116;-64
2021/12/30 08:41:23;;;;;;;6.35;3.50;;;;;;;13.59;92.66;101331.22;5035397;28;20033;-66
2021/12/30 08:43:50;;;;;;;6.47;3.67;;;;;;;13.62;93.02;101338.31;5028202;28;20048;-66
2021/12/30 08:46:16;;;;;;;5.35;3.53;;;;;;;13.63;92.45;101330.38;5022386;28;20078;-69
2021/12/30 08:48:41;;;;;;;6.75;3.90;;;;;;;13.62;92.33;101335.66;5052198;28;20132;-67
2021/12/30 08:51:07;;;;;;;4.72;3.67;;;;;;;13.62;92.45;101339.22;5045256;28;20050;-65
2021/12/30 08:53:40;;;;;;;6.78;3.97;;;;;;;13.63;92.64;101342.75;5042164;28;20031;-68
2021/12/30 08:56:06;;;;;;;6.35;3.83;;;;;;;13.64;92.26;101360.47;5022375;28;20136;-67
2021/12/30 08:58:55;;;;;;;6.82;4.20;;;;;;;13.67;92.49;101368.47;5024046;28;20518;-66
2021/12/30 09:01:21;;;;;;;6.90;4.15;;;;;;;13.69;92.25;101369.34;4997269;28;20041;-64
2021/12/30 09:03:46;;;;;;;7.60;4.38;;;;;;;13.70;92.25;101379.06;5019912;28;20017;-67
2021/12/30 09:06:15;;;;;;;8.70;4.60;;;;;;;13.70;92.45;101368.44;5034255;28;20025;-64
2021/12/30 09:08:41;;;;;;;6.47;4.32;;;;;;;13.73;92.18;101379.09;5053800;28;20023;-66
2021/12/30 09:11:06;;;;;;;8.07;4.80;;;;;;;13.74;92.07;101388.84;5056814;28;20442;-64
2021/12/30 09:13:32;;;;;;;10.75;5.45;;;;;;;13.73;91.78;101382.66;5056242;28;20017;-67
2021/12/30 09:15:57;;;;;;;6.82;4.93;;;;;;;13.75;91.52;101358.78;5053509;28;20426;-67
2021/12/30 09:18:24;;;;;;;7.93;4.93;;;;;;;13.83;91.24;101380.94;5052386;28;20478;-66
2021/12/30 09:20:50;;;;;;;6.80;4.72;;;;;;;13.89;91.05;101373.00;5056339;28;20394;-65
2021/12/30 09:23:16;;;;;;;7.70;4.53;;;;;;;13.94;90.90;101375.69;5056496;28;20031;-70
2021/12/30 09:25:42;;;;;;;7.97;4.57;;;;;;;13.97;90.42;101384.56;5056665;28;20037;-67
2021/12/30 09:28:11;;;;;;;8.40;4.80;;;;;;;14.02;90.07;101390.78;5056241;28;20039;-64
2021/12/30 09:30:37;;;;;;;8.30;4.80;;;;;;;14.03;89.54;101384.59;5055981;28;20025;-65
2021/12/30 09:33:08;;;;;;;10.48;4.55;;;;;;;14.07;89.70;101381.97;5056288;28;20035;-66
2021/12/30 09:35:36;;;;;;;8.70;4.05;;;;;;;14.09;89.41;101393.47;5056615;28;20021;-65
2021/12/30 09:38:06;;;;;;;7.80;4.72;;;;;;;14.10;89.42;101393.50;5056288;28;20112;-66
2021/12/30 09:40:31;;;;;;;9.05;4.05;;;;;;;14.11;89.11;101405.00;5056187;28;20025;-64
2021/12/30 09:43:01;;;;;;;10.38;3.88;;;;;;;14.16;88.31;101401.50;5055962;28;20071;-65
2021/12/30 09:45:35;;;;;;;10.07;4.20;;;;;;;14.19;88.39;101408.59;5037533;28;20093;-65
2021/12/30 09:48:04;;;;;;;7.00;3.45;;;;;;;14.20;87.75;101403.28;5055716;28;20067;-66
2021/12/30 09:50:35;;;;;;;9.52;3.75;;;;;;;14.25;87.63;101408.63;5053736;28;20049;-65
2021/12/30 09:53:01;;;;;;;8.95;3.35;;;;;;;14.27;87.36;101431.69;5055535;28;20029;-66
2021/12/30 09:55:26;;;;;;;8.82;3.45;;;;;;;14.30;86.95;101425.47;5055274;28;20398;-65
2021/12/30 09:57:53;;;;;;;9.52;3.53;;;;;;;14.29;87.19;101415.72;5055289;28;20051;-65
2021/12/30 10:00:19;;;;;;;11.20;3.63;;;;;;;14.28;87.26;101420.16;5055229;28;20025;-65
2021/12/30 10:02:45;;;;;;;10.63;3.67;;;;;;;14.28;86.84;101413.97;5055290;28;20389;-65
2021/12/30 10:05:14;;;;;;;9.95;3.85;;;;;;;14.34;86.89;101413.09;5055205;28;20033;-65
2021/12/30 10:07:41;;;;;;;12.10;3.78;;;;;;;14.35;86.33;101420.19;5054986;28;20533;-65
2021/12/30 10:10:33;;;;;;;9.20;3.45;;;;;;;14.37;86.69;101403.34;5036789;28;20029;-64
2021/12/30 10:12:59;;;;;;;12.15;4.03;;;;;;;14.37;86.18;101410.44;5055289;28;20036;-65
2021/12/30 10:15:27;;;;;;;11.32;3.70;;;;;;;14.35;85.97;101410.44;5055094;28;20028;-65
2021/12/30 10:18:13;;;;;;;13.70;3.88;;;;;;;14.40;86.11;101416.66;5054285;28;20029;-65
2021/12/30 10:20:40;;;;;;;9.43;3.63;;;;;;;14.35;86.11;101413.13;5033902;28;20132;-66
2021/12/30 10:23:24;;;;;;;15.35;3.97;;;;;;;14.43;86.01;101416.69;5035467;28;20038;-66
2021/12/30 10:25:53;;;;;;;9.10;3.30;;;;;;;14.43;85.88;101427.34;5034977;28;20028;-65
2021/12/30 10:28:28;;;;;;;11.43;3.40;;;;;;;14.43;85.40;101414.03;5034996;28;20045;-64
2021/12/30 10:31:00;;;;;;;15.35;3.58;;;;;;;14.45;85.85;101420.22;5034908;28;20025;-64
2021/12/30 10:33:29;;;;;;;8.85;3.20;;;;;;;14.45;85.44;101422.88;5034741;28;20029;-66
2021/12/30 10:35:58;;;;;;;10.30;3.65;;;;;;;14.42;85.81;101432.63;5034585;28;20032;-68
2021/12/30 10:38:28;;;;;;;12.45;3.70;;;;;;;14.43;85.27;101422.00;5034645;28;20022;-65
2021/12/30 10:40:58;;;;;;;10.75;3.50;;;;;;;14.42;85.38;101420.22;5034395;28;20025;-66
2021/12/30 10:43:31;;;;;;;9.02;3.13;;;;;;;14.43;85.18;101413.13;5034044;28;20537;-65
2021/12/30 10:46:07;;;;;;;;;;;;;;;14.50;85.85;101421.16;5034580;28;20057;-66
2021/12/30 10:48:34;;;;;;;18.92;3.85;;;;;;;14.43;84.95;101421.09;5034124;28;19936;-66
2021/12/30 10:51:21;;;;;;;11.57;3.83;;;;;;;14.43;85.26;101416.69;5033882;28;20038;-66
2021/12/30 10:53:53;;;;;;;15.23;3.97;;;;;;;14.42;85.12;101416.66;5033831;28;20037;-65
2021/12/30 10:56:23;;;;;;;12.63;4.05;;;;;;;14.44;84.43;101426.44;5033914;28;20021;-65
2021/12/30 10:58:50;;;;;;;10.65;3.45;;;;;;;14.43;85.00;101427.34;5034002;28;20041;-65
2021/12/30 11:01:19;;;;;;;13.45;3.60;;;;;;;14.48;84.77;101430.94;5033952;28;20025;-65
2021/12/30 11:03:56;;;;;;;12.38;3.65;;;;;;;14.44;84.91;101431.75;5034008;28;20033;-65
2021/12/30 11:06:22;;;;;;;13.63;3.63;;;;;;;14.46;84.46;101419.34;5033691;28;20029;-65
2021/12/30 11:09:04;;;;;;;12.15;3.67;;;;;;;14.49;84.60;101426.50;5033857;28;20040;-66
2021/12/30 11:11:29;;;;;;;13.23;3.67;;;;;;;14.50;84.16;101441.56;5033740;28;20028;-66
2021/12/30 11:14:05;;;;;;;12.23;3.50;;;;;;;14.51;84.60;101440.66;5033917;28;20033;-66
2021/12/30 11:16:32;;;;;;;12.40;3.40;;;;;;;14.55;83.30;101436.25;5033577;28;20021;-65
2021/12/30 11:18:58;;;;;;;10.48;3.10;;;;;;;14.54;83.70;101435.38;5033709;28;20021;-65